createdAt,value
2023-02-17T00:01:36.142Z,15.47
2023-02-17T00:04:04.063Z,13.87
2023-02-17T00:06:32.885Z,14.23
2023-02-17T00:09:01.903Z,15.00
2023-02-17T00:11:30.455Z,14.90
2023-02-17T00:13:58.618Z,13.53
2023-02-17T00:16:29.293Z,18.40
2023-02-17T00:18:59.316Z,15.67
2023-02-17T00:21:30.218Z,13.33
2023-02-17T00:23:59.232Z,14.17
2023-02-17T00:26:27.227Z,14.37
2023-02-17T00:28:55.553Z,16.23
2023-02-17T00:31:24.580Z,17.67
2023-02-17T00:33:55.681Z,14.53
2023-02-17T00:36:23.724Z,12.93
2023-02-17T00:38:51.659Z,13.50
2023-02-17T00:41:20.581Z,12.00
2023-02-17T00:43:49.325Z,17.10
2023-02-17T00:46:19.227Z,14.47
2023-02-17T00:48:47.190Z,16.03
2023-02-17T00:51:17.200Z,15.07
2023-02-17T00:53:46.000Z,21.50
2023-02-17T00:56:14.384Z,18.80
2023-02-17T00:58:42.706Z,19.90
2023-02-17T01:01:11.141Z,18.57
2023-02-17T01:03:40.985Z,16.30
2023-02-17T01:06:10.884Z,14.53
2023-02-17T01:08:40.129Z,17.07
2023-02-17T01:11:07.993Z,16.90
2023-02-17T01:13:35.969Z,20.57
2023-02-17T01:16:04.195Z,17.87
2023-02-17T01:18:32.388Z,15.23
2023-02-17T01:21:00.286Z,17.67
2023-02-17T01:23:28.177Z,18.00
2023-02-17T01:25:57.408Z,17.43
2023-02-17T01:28:25.281Z,19.80
2023-02-17T01:30:53.133Z,15.50
2023-02-17T01:33:21.099Z,17.33
2023-02-17T01:35:48.923Z,14.03
2023-02-17T01:38:16.778Z,13.83
2023-02-17T01:40:48.483Z,17.27
2023-02-17T01:43:18.928Z,15.40
2023-02-17T01:45:50.777Z,18.67
2023-02-17T01:48:21.661Z,16.00
2023-02-17T01:50:54.191Z,17.57
2023-02-17T01:53:28.973Z,16.50
2023-02-17T01:55:57.577Z,14.27
2023-02-17T01:58:28.042Z,15.90
2023-02-17T02:01:00.183Z,14.43
2023-02-17T02:03:31.425Z,18.10
2023-02-17T02:06:00.649Z,18.83
2023-02-17T02:08:31.822Z,17.30
2023-02-17T02:10:59.703Z,18.83
2023-02-17T02:13:28.978Z,17.17
2023-02-17T02:16:12.417Z,17.37
2023-02-17T02:18:55.890Z,14.87
2023-02-17T02:22:06.210Z,18.20
2023-02-17T02:24:47.155Z,16.60
2023-02-17T02:27:36.046Z,17.20
2023-02-17T02:30:40.158Z,15.37
2023-02-17T02:33:17.979Z,15.03
2023-02-17T02:35:54.085Z,17.00
2023-02-17T02:38:27.814Z,14.90
2023-02-17T02:41:04.218Z,16.20
2023-02-17T02:43:33.692Z,14.20
2023-02-17T02:46:01.657Z,15.83
2023-02-17T02:48:31.619Z,14.23
2023-02-17T02:51:21.735Z,14.50
2023-02-17T02:54:11.971Z,14.60
2023-02-17T02:56:50.284Z,12.17
2023-02-17T02:59:33.085Z,16.90
2023-02-17T03:02:11.246Z,15.87
2023-02-17T03:04:47.309Z,14.97
2023-02-17T03:07:22.215Z,14.73
2023-02-17T03:09:51.715Z,15.50
2023-02-17T03:12:19.744Z,15.30
2023-02-17T03:14:49.558Z,14.53
2023-02-17T03:17:17.477Z,16.73
2023-02-17T03:19:47.723Z,13.03
2023-02-17T03:22:19.476Z,18.33
2023-02-17T03:24:47.319Z,15.63
2023-02-17T03:27:15.309Z,17.07
2023-02-17T03:29:43.752Z,14.17
2023-02-17T03:32:11.790Z,15.70
2023-02-17T03:34:39.869Z,14.77
2023-02-17T03:37:09.117Z,17.40
2023-02-17T03:39:37.035Z,14.03
2023-02-17T03:42:05.247Z,14.07
2023-02-17T03:44:33.080Z,13.20
2023-02-17T03:47:00.914Z,12.53
2023-02-17T03:49:28.956Z,14.10
2023-02-17T03:51:58.197Z,13.00
2023-02-17T03:54:28.035Z,12.30
2023-02-17T03:56:55.927Z,11.53
2023-02-17T03:59:23.837Z,13.53
2023-02-17T04:01:51.788Z,13.87
2023-02-17T04:04:19.758Z,12.77
2023-02-17T04:06:47.868Z,15.03
2023-02-17T04:09:15.790Z,12.53
2023-02-17T04:11:45.187Z,14.47
2023-02-17T04:14:13.010Z,11.50
2023-02-17T04:16:40.865Z,13.07
2023-02-17T04:19:08.743Z,15.27
2023-02-17T04:21:36.815Z,14.50
2023-02-17T04:24:05.145Z,13.63
2023-02-17T04:26:33.013Z,15.83
2023-02-17T04:29:05.125Z,14.90
2023-02-17T04:31:33.185Z,15.33
2023-02-17T04:34:01.129Z,11.27
2023-02-17T04:36:28.970Z,14.17
2023-02-17T04:38:56.812Z,13.93
2023-02-17T04:41:24.710Z,12.20
2023-02-17T04:43:52.765Z,14.97
2023-02-17T04:46:22.104Z,12.40
2023-02-17T04:48:50.015Z,12.70
2023-02-17T04:51:17.920Z,10.60
2023-02-17T04:53:45.780Z,10.40
2023-02-17T04:56:13.782Z,12.17
2023-02-17T04:58:41.693Z,11.77
2023-02-17T05:01:09.613Z,10.20
2023-02-17T05:03:38.850Z,14.70
2023-02-17T05:06:07.617Z,11.80
2023-02-17T05:08:35.546Z,19.23
2023-02-17T05:11:03.443Z,11.60
2023-02-17T05:13:33.191Z,12.20
2023-02-17T05:16:01.143Z,10.40
2023-02-17T05:18:29.064Z,11.17
2023-02-17T05:20:58.349Z,12.47
2023-02-17T05:23:26.222Z,11.87
2023-02-17T05:25:54.209Z,11.23
2023-02-17T05:28:22.048Z,14.60
2023-02-17T05:30:50.363Z,14.87
2023-02-17T05:33:18.415Z,12.27
2023-02-17T05:35:46.304Z,12.30
2023-02-17T05:38:15.585Z,12.80
2023-02-17T05:40:43.467Z,11.83
2023-02-17T05:43:11.466Z,10.77
2023-02-17T05:45:39.361Z,13.83
2023-02-17T05:48:07.210Z,11.73
2023-02-17T05:50:35.118Z,16.63
2023-02-17T05:53:03.051Z,12.60
2023-02-17T05:55:32.331Z,13.80
2023-02-17T05:58:01.314Z,12.93
2023-02-17T06:00:29.613Z,13.90
2023-02-17T06:02:57.529Z,15.53
2023-02-17T06:05:25.440Z,14.90
2023-02-17T06:07:53.324Z,12.77
2023-02-17T06:10:21.540Z,12.57
2023-02-17T06:12:50.894Z,15.70
2023-02-17T06:15:19.050Z,14.73
2023-02-17T06:17:46.937Z,14.27
2023-02-17T06:20:15.458Z,12.77
2023-02-17T06:22:44.606Z,12.60
2023-02-17T06:25:13.105Z,13.07
2023-02-17T06:27:42.972Z,11.93
2023-02-17T06:30:13.844Z,15.23
2023-02-17T06:32:41.745Z,14.97
2023-02-17T06:35:10.090Z,14.27
2023-02-17T06:37:38.057Z,14.43
2023-02-17T06:40:07.288Z,17.70
2023-02-17T06:42:35.160Z,12.80
2023-02-17T06:45:05.995Z,13.70
2023-02-17T06:47:36.321Z,13.20
2023-02-17T06:50:04.466Z,11.07
2023-02-17T06:52:32.454Z,12.70
2023-02-17T06:55:00.425Z,12.20
2023-02-17T06:57:28.334Z,13.37
2023-02-17T06:59:56.224Z,13.23
2023-02-17T07:02:24.196Z,15.80
2023-02-17T07:04:53.548Z,14.87
2023-02-17T07:07:21.469Z,13.13
2023-02-17T07:09:49.390Z,14.27
2023-02-17T07:12:17.406Z,12.97
2023-02-17T07:14:45.378Z,12.43
2023-02-17T07:17:13.542Z,14.43
2023-02-17T07:19:41.426Z,13.50
2023-02-17T07:22:10.736Z,13.93
2023-02-17T07:24:38.658Z,14.37
2023-02-17T07:27:08.521Z,18.17
2023-02-17T07:29:37.878Z,17.00
2023-02-17T07:32:06.110Z,16.53
2023-02-17T07:34:34.005Z,13.50
2023-02-17T07:37:01.875Z,15.20
2023-02-17T07:39:31.156Z,18.17
2023-02-17T07:42:01.043Z,14.50
2023-02-17T07:44:29.258Z,14.07
2023-02-17T07:46:57.110Z,13.43
2023-02-17T07:49:25.012Z,18.50
2023-02-17T07:51:52.948Z,15.27
2023-02-17T07:54:20.908Z,14.10
2023-02-17T07:56:50.174Z,14.83
2023-02-17T07:59:18.257Z,16.27
2023-02-17T08:01:46.334Z,15.30
2023-02-17T08:04:14.443Z,15.33
2023-02-17T08:06:42.318Z,14.10
2023-02-17T08:09:29.139Z,14.50
2023-02-17T08:12:16.195Z,15.97
2023-02-17T08:14:44.145Z,13.50
2023-02-17T08:17:12.231Z,13.07
2023-02-17T08:19:48.083Z,17.43
2023-02-17T08:22:17.166Z,15.97
2023-02-17T08:24:45.258Z,15.87
2023-02-17T08:27:15.932Z,18.33
2023-02-17T08:29:44.684Z,20.17
2023-02-17T08:32:13.067Z,16.43
2023-02-17T08:34:41.440Z,15.53
2023-02-17T08:37:11.047Z,23.13
2023-02-17T08:39:39.342Z,18.33
2023-02-17T08:42:07.297Z,20.73
2023-02-17T08:44:37.833Z,17.70
2023-02-17T08:47:06.943Z,20.93
2023-02-17T08:49:35.029Z,18.97
2023-02-17T08:52:03.534Z,18.13
2023-02-17T08:54:31.494Z,19.00
2023-02-17T08:56:59.692Z,20.93
2023-02-17T08:59:27.573Z,20.50
2023-02-17T09:01:56.863Z,21.07
2023-02-17T09:04:25.059Z,22.50
2023-02-17T09:06:56.054Z,25.53
2023-02-17T09:09:27.915Z,20.03
2023-02-17T09:11:57.597Z,22.27
2023-02-17T09:14:25.706Z,26.13
2023-02-17T09:16:54.864Z,17.90
2023-02-17T09:19:24.902Z,9.30
2023-02-17T09:21:52.822Z,5.53
2023-02-17T09:24:20.948Z,5.27
2023-02-17T09:26:49.132Z,4.53
2023-02-17T09:29:17.078Z,6.13
2023-02-17T09:31:46.190Z,5.72
2023-02-17T09:34:15.258Z,4.72
2023-02-17T09:36:44.656Z,5.88
2023-02-17T09:39:14.147Z,4.30
2023-02-17T09:41:47.297Z,6.30
2023-02-17T09:44:22.825Z,5.35
2023-02-17T09:47:02.157Z,4.45
2023-02-17T09:49:36.492Z,4.90
2023-02-17T09:52:12.764Z,3.90
2023-02-17T09:54:50.680Z,5.50
2023-02-17T09:57:22.306Z,4.78
2023-02-17T09:59:54.422Z,4.13
2023-02-17T10:02:30.851Z,14.40
2023-02-17T10:05:04.070Z,5.03
2023-02-17T10:07:38.114Z,13.60
2023-02-17T10:10:12.348Z,14.90
2023-02-17T10:12:45.642Z,7.07
2023-02-17T10:15:19.408Z,11.98
2023-02-17T10:17:55.556Z,13.35
2023-02-17T10:20:26.883Z,5.32
2023-02-17T10:23:02.899Z,5.28
2023-02-17T10:25:47.292Z,6.72
2023-02-17T10:28:19.773Z,7.50
2023-02-17T10:30:57.175Z,5.78
2023-02-17T10:33:30.444Z,11.93
2023-02-17T10:36:11.975Z,3.80
2023-02-17T10:38:50.611Z,6.43
2023-02-17T10:41:23.825Z,3.90
2023-02-17T10:43:52.164Z,4.32
2023-02-17T10:46:26.285Z,4.13
2023-02-17T10:48:56.257Z,4.70
2023-02-17T10:51:26.943Z,3.58
2023-02-17T10:54:01.034Z,4.57
2023-02-17T10:56:36.725Z,3.67
2023-02-17T10:59:09.902Z,4.07
2023-02-17T11:01:38.260Z,4.40
2023-02-17T11:04:08.580Z,4.18
2023-02-17T11:06:39.523Z,3.75
2023-02-17T11:09:20.123Z,4.25
2023-02-17T11:11:56.421Z,4.30
2023-02-17T11:14:29.016Z,4.43
2023-02-17T11:17:00.209Z,4.32
2023-02-17T11:19:30.500Z,3.97
2023-02-17T11:22:00.560Z,4.22
2023-02-17T11:24:31.744Z,3.83
2023-02-17T11:27:10.661Z,3.95
2023-02-17T11:29:38.889Z,4.45
2023-02-17T11:32:09.291Z,8.02
2023-02-17T11:34:39.537Z,4.13
2023-02-17T11:37:22.324Z,4.93
2023-02-17T11:39:54.519Z,4.72
2023-02-17T11:42:23.765Z,4.53
2023-02-17T11:44:52.818Z,4.38
2023-02-17T11:47:32.042Z,6.32
2023-02-17T11:50:39.014Z,4.03
2023-02-17T11:53:21.594Z,4.28
2023-02-17T11:56:02.858Z,4.60
2023-02-17T11:58:46.829Z,5.55
2023-02-17T12:01:31.047Z,5.57
2023-02-17T12:04:24.685Z,3.92
2023-02-17T12:07:06.646Z,3.95
2023-02-17T12:09:44.987Z,3.80
2023-02-17T12:12:23.499Z,8.90
2023-02-17T12:15:04.490Z,4.65
2023-02-17T12:17:44.270Z,4.05
2023-02-17T12:20:32.900Z,3.47
2023-02-17T12:23:14.749Z,4.35
2023-02-17T12:25:49.429Z,5.35
2023-02-17T12:28:42.768Z,4.70
2023-02-17T12:31:22.879Z,3.72
2023-02-17T12:33:59.126Z,4.47
2023-02-17T12:36:31.651Z,3.60
2023-02-17T12:39:04.375Z,4.57
2023-02-17T12:41:37.471Z,5.32
2023-02-17T12:44:13.291Z,4.25
2023-02-17T12:46:44.244Z,4.35
2023-02-17T12:49:17.872Z,4.10
2023-02-17T12:51:51.130Z,3.53
2023-02-17T12:54:24.788Z,5.88
2023-02-17T12:57:14.693Z,7.63
2023-02-17T12:59:45.891Z,4.93
2023-02-17T13:02:16.118Z,7.20
2023-02-17T13:04:46.264Z,6.18
2023-02-17T13:07:28.219Z,3.95
2023-02-17T13:09:57.924Z,7.43
2023-02-17T13:12:40.548Z,4.20
2023-02-17T13:15:38.182Z,4.20
2023-02-17T13:18:08.663Z,4.10
2023-02-17T13:20:45.867Z,6.10
2023-02-17T13:23:15.437Z,4.00
2023-02-17T13:25:43.372Z,3.88
2023-02-17T13:28:31.768Z,3.83
2023-02-17T13:31:10.609Z,4.80
2023-02-17T13:33:44.224Z,3.05
2023-02-17T13:36:22.502Z,4.43
2023-02-17T13:39:03.032Z,4.40
2023-02-17T13:41:35.666Z,3.83
2023-02-17T13:44:27.011Z,4.55
2023-02-17T13:47:00.032Z,2.88
2023-02-17T13:49:29.471Z,3.03
2023-02-17T13:52:08.924Z,3.58
2023-02-17T13:54:36.880Z,2.40
2023-02-17T13:57:05.007Z,2.40
2023-02-17T13:59:33.011Z,3.53
2023-02-17T14:02:02.272Z,2.47
2023-02-17T14:04:32.578Z,2.38
2023-02-17T14:07:05.269Z,3.30
2023-02-17T14:09:35.373Z,5.95
2023-02-17T14:12:05.644Z,3.65
2023-02-17T14:14:35.497Z,6.18
2023-02-17T14:17:06.992Z,4.20
2023-02-17T14:19:44.426Z,4.40
2023-02-17T14:22:26.496Z,4.60
2023-02-17T14:25:10.301Z,3.97
2023-02-17T14:27:44.923Z,4.00
2023-02-17T14:30:17.027Z,4.65
2023-02-17T14:32:47.297Z,3.35
2023-02-17T14:35:24.956Z,5.25
2023-02-17T14:37:53.324Z,4.00
2023-02-17T14:40:24.502Z,4.25
2023-02-17T14:42:53.829Z,5.05
2023-02-17T14:45:22.825Z,7.35
2023-02-17T14:47:53.984Z,5.53
2023-02-17T14:50:22.436Z,6.60
2023-02-17T14:52:53.135Z,4.75
2023-02-17T14:55:30.753Z,5.60
2023-02-17T14:57:59.362Z,6.13
2023-02-17T15:00:27.891Z,7.93
2023-02-17T15:02:57.619Z,6.60
2023-02-17T15:05:25.904Z,4.60
2023-02-17T15:08:03.889Z,6.35
2023-02-17T15:10:36.477Z,5.45
2023-02-17T15:13:04.584Z,7.45
2023-02-17T15:15:32.769Z,5.95
2023-02-17T15:18:14.332Z,8.07
2023-02-17T15:21:02.909Z,4.72
2023-02-17T15:23:35.355Z,6.35
2023-02-17T15:26:03.265Z,5.00
2023-02-17T15:28:31.188Z,6.88
2023-02-17T15:30:59.809Z,6.80
2023-02-17T15:33:29.221Z,5.15
2023-02-17T15:35:57.446Z,6.05
2023-02-17T15:38:27.526Z,7.15
2023-02-17T15:40:58.729Z,5.05
2023-02-17T15:46:14.363Z,5.88
2023-02-17T15:48:45.105Z,8.25
2023-02-17T15:51:15.073Z,6.43
2023-02-17T15:53:43.143Z,6.03
2023-02-17T15:56:14.787Z,4.78
2023-02-17T15:58:43.210Z,4.85
2023-02-17T16:01:17.999Z,6.63
2023-02-17T16:03:47.397Z,5.07
2023-02-17T16:06:15.307Z,5.00
2023-02-17T16:08:43.977Z,4.60
2023-02-17T16:11:13.928Z,4.32
2023-02-17T16:13:42.609Z,4.15
2023-02-17T16:16:17.078Z,5.22
2023-02-17T16:18:45.038Z,4.82
2023-02-17T16:21:14.594Z,4.38
2023-02-17T16:23:42.912Z,6.35
2023-02-17T16:26:17.286Z,5.93
2023-02-17T16:28:45.750Z,5.70
2023-02-17T16:31:13.766Z,5.25
2023-02-17T16:33:41.723Z,6.38
2023-02-17T16:36:17.482Z,8.95
2023-02-17T16:38:49.282Z,6.82
2023-02-17T16:41:19.154Z,8.55
2023-02-17T16:43:47.167Z,7.30
2023-02-17T16:46:24.578Z,7.32
2023-02-17T16:48:52.507Z,8.25
2023-02-17T16:51:21.890Z,4.82
2023-02-17T16:53:50.074Z,5.60
2023-02-17T16:56:20.950Z,5.17
2023-02-17T16:58:48.934Z,7.00
2023-02-17T17:01:16.967Z,4.22
2023-02-17T17:03:45.256Z,5.03
2023-02-17T17:06:24.624Z,6.40
2023-02-17T17:08:53.378Z,7.40
2023-02-17T17:11:23.601Z,4.55
2023-02-17T17:13:51.555Z,6.45
2023-02-17T17:16:22.575Z,3.40
2023-02-17T17:18:50.607Z,6.63
2023-02-17T17:21:20.432Z,5.22
2023-02-17T17:23:50.697Z,3.70
2023-02-17T17:26:24.412Z,5.72
2023-02-17T17:28:52.879Z,11.15
2023-02-17T17:31:21.300Z,8.02
2023-02-17T17:33:49.992Z,7.57
2023-02-17T17:36:24.546Z,6.60
2023-02-17T17:38:55.077Z,7.60
2023-02-17T17:41:23.978Z,7.43
2023-02-17T17:43:52.318Z,8.60
2023-02-17T17:46:22.767Z,8.00
2023-02-17T17:48:50.724Z,7.80
2023-02-17T17:51:21.509Z,7.47
2023-02-17T17:53:50.184Z,7.73
2023-02-17T17:56:21.378Z,10.13
2023-02-17T17:58:49.352Z,9.80
2023-02-17T18:01:19.335Z,7.80
2023-02-17T18:03:47.567Z,8.43
2023-02-17T18:06:20.125Z,6.53
2023-02-17T18:08:49.324Z,10.23
2023-02-17T18:11:20.305Z,12.23
2023-02-17T18:13:51.694Z,9.40
2023-02-17T18:16:21.214Z,8.13
2023-02-17T18:18:50.026Z,7.90
2023-02-17T18:21:18.392Z,9.67
2023-02-17T18:23:47.215Z,8.17
2023-02-17T18:26:16.423Z,9.63
2023-02-17T18:28:45.813Z,10.50
2023-02-17T18:31:16.803Z,9.47
2023-02-17T18:33:45.048Z,7.40
2023-02-17T18:36:15.873Z,6.80
2023-02-17T18:38:44.245Z,8.10
2023-02-17T18:41:18.342Z,11.20
2023-02-17T18:43:50.609Z,8.17
2023-02-17T18:46:18.790Z,8.40
2023-02-17T18:48:49.377Z,9.47
2023-02-17T18:51:23.194Z,14.80
2023-02-17T18:53:51.608Z,7.67
2023-02-17T18:56:22.496Z,8.90
2023-02-17T18:58:53.052Z,7.40
2023-02-17T19:01:22.746Z,9.70
2023-02-17T19:03:52.090Z,6.00
2023-02-17T19:06:22.574Z,7.47
2023-02-17T19:08:52.407Z,8.20
2023-02-17T19:11:22.727Z,9.97
2023-02-17T19:13:52.915Z,10.10
2023-02-17T19:16:23.068Z,8.10
2023-02-17T19:18:51.684Z,7.53
2023-02-17T19:21:20.258Z,7.67
2023-02-17T19:23:48.420Z,8.80
2023-02-17T19:26:17.851Z,7.27
2023-02-17T19:28:46.443Z,10.80
2023-02-17T19:31:17.647Z,11.90
2023-02-17T19:33:45.822Z,9.53
2023-02-17T19:36:16.102Z,12.47
2023-02-17T19:38:44.141Z,10.23
2023-02-17T19:41:14.606Z,11.90
2023-02-17T19:43:43.198Z,13.37
2023-02-17T19:46:13.069Z,13.10
2023-02-17T19:48:42.459Z,12.63
2023-02-17T19:51:14.035Z,13.47
2023-02-17T19:53:45.447Z,11.57
2023-02-17T19:56:15.506Z,14.13
2023-02-17T19:58:45.207Z,10.97
2023-02-17T20:01:15.305Z,11.80
2023-02-17T20:03:44.757Z,16.17
2023-02-17T20:06:16.692Z,17.03
2023-02-17T20:08:45.305Z,24.80
2023-02-17T20:11:14.377Z,21.27
2023-02-17T20:13:46.198Z,19.83
2023-02-17T20:16:16.042Z,20.27
2023-02-17T20:18:47.573Z,18.30
2023-02-17T20:21:18.021Z,19.20
2023-02-17T20:23:46.517Z,18.87
2023-02-17T20:26:16.006Z,20.97
2023-02-17T20:28:44.300Z,19.30
2023-02-17T20:31:13.410Z,22.80
2023-02-17T20:33:41.602Z,30.97
2023-02-17T20:36:11.963Z,20.33
2023-02-17T20:38:40.015Z,16.33
2023-02-17T20:41:09.808Z,19.40
2023-02-17T20:43:38.749Z,18.87
2023-02-17T20:46:07.657Z,21.27
2023-02-17T20:48:35.849Z,17.27
2023-02-17T20:51:05.779Z,13.37
2023-02-17T20:53:35.138Z,16.07
2023-02-17T20:56:03.419Z,15.27
2023-02-17T20:58:31.252Z,13.67
2023-02-17T21:00:59.259Z,15.00
2023-02-17T21:03:27.197Z,14.50
2023-02-17T21:05:55.094Z,12.93
2023-02-17T21:08:23.065Z,10.10
2023-02-17T21:10:52.340Z,18.03
2023-02-17T21:13:22.749Z,12.40
2023-02-17T21:15:51.211Z,11.57
2023-02-17T21:18:19.218Z,13.30
2023-02-17T21:20:47.122Z,12.50
2023-02-17T21:23:15.957Z,12.37
2023-02-17T21:25:46.315Z,11.93
2023-02-17T21:28:17.488Z,11.83
2023-02-17T21:30:47.185Z,8.87
2023-02-17T21:33:15.222Z,8.97
2023-02-17T21:35:43.200Z,10.23
2023-02-17T21:38:12.265Z,10.33
2023-02-17T21:40:40.139Z,11.27
2023-02-17T21:43:25.759Z,11.30
2023-02-17T21:45:55.074Z,10.60
2023-02-17T21:48:23.142Z,9.57
2023-02-17T21:50:50.995Z,12.03
2023-02-17T21:53:19.002Z,12.10
2023-02-17T21:55:47.584Z,11.20
2023-02-17T21:58:15.464Z,13.37
2023-02-17T22:00:43.395Z,11.63
2023-02-17T22:03:12.660Z,14.73
2023-02-17T22:05:40.536Z,12.43
2023-02-17T22:08:08.459Z,12.60
2023-02-17T22:10:38.401Z,11.67
2023-02-17T22:13:07.178Z,10.37
2023-02-17T22:15:35.574Z,11.10
2023-02-17T22:18:03.776Z,13.03
2023-02-17T22:20:33.035Z,12.03
2023-02-17T22:23:00.920Z,12.47
2023-02-17T22:25:28.813Z,11.17
2023-02-17T22:27:57.017Z,12.20
2023-02-17T22:30:25.596Z,10.43
2023-02-17T22:32:53.560Z,10.40
2023-02-17T22:35:22.052Z,10.43
2023-02-17T22:37:51.342Z,8.50
2023-02-17T22:40:19.382Z,9.30
2023-02-17T22:42:47.333Z,8.53
2023-02-17T22:45:15.232Z,8.50
2023-02-17T22:47:43.645Z,7.87
2023-02-17T22:50:11.689Z,10.07
2023-02-17T22:52:39.594Z,8.63
2023-02-17T22:55:09.869Z,7.77
2023-02-17T22:57:37.772Z,9.97
2023-02-17T23:00:06.777Z,11.03
2023-02-17T23:02:35.782Z,11.20
2023-02-17T23:05:04.000Z,8.40
2023-02-17T23:07:31.888Z,8.43
2023-02-17T23:09:59.796Z,8.27
2023-02-17T23:12:29.387Z,7.87
2023-02-17T23:14:57.295Z,8.70
2023-02-17T23:17:25.202Z,8.87
2023-02-17T23:19:53.091Z,8.20
2023-02-17T23:22:20.990Z,8.17
2023-02-17T23:24:49.373Z,9.27
2023-02-17T23:27:17.395Z,8.93
2023-02-17T23:29:46.607Z,8.00
2023-02-17T23:32:18.226Z,10.57
2023-02-17T23:34:46.110Z,6.63
2023-02-17T23:37:13.972Z,13.03
2023-02-17T23:39:41.909Z,11.97
2023-02-17T23:42:09.761Z,8.80
2023-02-17T23:44:37.654Z,11.50
2023-02-17T23:47:06.896Z,8.40
2023-02-17T23:49:34.732Z,9.27
2023-02-17T23:52:02.668Z,8.90
2023-02-17T23:54:30.544Z,9.97
2023-02-17T23:56:58.463Z,7.83
2023-02-17T23:59:26.344Z,8.73
